sensor_id;sensor_type;location;lat;lon;timestamp;P1;durP1;ratioP1;P2;durP2;ratioP2
20970;SDS011;10644;48.834;10.088;2023-04-19T00:05:48;22.30;;;14.00;;
20970;SDS011;10644;48.834;10.088;2023-04-19T00:08:58;57.13;;;20.57;;
20970;SDS011;10644;48.834;10.088;2023-04-19T00:17:57;81.90;;;23.43;;
20970;SDS011;10644;48.834;10.088;2023-04-19T00:20:29;102.60;;;34.43;;
20970;SDS011;10644;48.834;10.088;2023-04-19T00:26:22;66.13;;;22.53;;
20970;SDS011;10644;48.834;10.088;2023-04-19T00:29:27;79.97;;;27.63;;
20970;SDS011;10644;48.834;10.088;2023-04-19T00:35:46;97.57;;;29.53;;
20970;SDS011;10644;48.834;10.088;2023-04-19T00:39:01;53.60;;;21.43;;
20970;SDS011;10644;48.834;10.088;2023-04-19T00:41:49;87.23;;;28.63;;
20970;SDS011;10644;48.834;10.088;2023-04-19T00:44:31;78.57;;;27.83;;
20970;SDS011;10644;48.834;10.088;2023-04-19T00:47:20;25.00;;;15.30;;
20970;SDS011;10644;48.834;10.088;2023-04-19T00:53:27;62.73;;;21.20;;
20970;SDS011;10644;48.834;10.088;2023-04-19T00:56:21;50.63;;;18.50;;
20970;SDS011;10644;48.834;10.088;2023-04-19T00:59:30;25.93;;;15.57;;
20970;SDS011;10644;48.834;10.088;2023-04-19T01:02:39;25.03;;;15.10;;
20970;SDS011;10644;48.834;10.088;2023-04-19T01:05:22;82.77;;;30.83;;
20970;SDS011;10644;48.834;10.088;2023-04-19T01:11:12;96.27;;;29.70;;
20970;SDS011;10644;48.834;10.088;2023-04-19T01:21:07;53.00;;;22.20;;
20970;SDS011;10644;48.834;10.088;2023-04-19T01:31:00;51.00;;;20.73;;
20970;SDS011;10644;48.834;10.088;2023-04-19T01:33:43;55.50;;;23.13;;
20970;SDS011;10644;48.834;10.088;2023-04-19T01:39:45;28.77;;;17.37;;
20970;SDS011;10644;48.834;10.088;2023-04-19T01:42:51;22.00;;;14.53;;
20970;SDS011;10644;48.834;10.088;2023-04-19T01:45:42;64.87;;;28.90;;
20970;SDS011;10644;48.834;10.088;2023-04-19T01:48:18;79.03;;;32.60;;
20970;SDS011;10644;48.834;10.088;2023-04-19T01:51:08;75.10;;;27.40;;
20970;SDS011;10644;48.834;10.088;2023-04-19T01:57:08;72.90;;;28.93;;
20970;SDS011;10644;48.834;10.088;2023-04-19T02:03:18;27.03;;;16.60;;
20970;SDS011;10644;48.834;10.088;2023-04-19T02:09:25;48.57;;;22.20;;
20970;SDS011;10644;48.834;10.088;2023-04-19T02:15:28;24.80;;;16.30;;
20970;SDS011;10644;48.834;10.088;2023-04-19T02:18:06;30.40;;;16.90;;
20970;SDS011;10644;48.834;10.088;2023-04-19T02:20:44;26.60;;;16.00;;
20970;SDS011;10644;48.834;10.088;2023-04-19T02:26:10;91.90;;;34.20;;
20970;SDS011;10644;48.834;10.088;2023-04-19T02:32:22;54.13;;;21.73;;
20970;SDS011;10644;48.834;10.088;2023-04-19T02:38:34;52.10;;;21.30;;
20970;SDS011;10644;48.834;10.088;2023-04-19T02:44:17;68.67;;;26.83;;
20970;SDS011;10644;48.834;10.088;2023-04-19T03:02:01;70.83;;;29.83;;
20970;SDS011;10644;48.834;10.088;2023-04-19T03:05:09;115.27;;;38.90;;
20970;SDS011;10644;48.834;10.088;2023-04-19T03:08:10;149.67;;;48.63;;
20970;SDS011;10644;48.834;10.088;2023-04-19T03:21:30;59.33;;;24.13;;
20970;SDS011;10644;48.834;10.088;2023-04-19T03:44:23;83.70;;;28.30;;
20970;SDS011;10644;48.834;10.088;2023-04-19T04:36:00;35.13;;;16.70;;
20970;SDS011;10644;48.834;10.088;2023-04-19T04:42:23;71.30;;;24.20;;
20970;SDS011;10644;48.834;10.088;2023-04-19T05:32:54;69.70;;;23.88;;
20970;SDS011;10644;48.834;10.088;2023-04-19T05:49:46;25.90;;;15.60;;
20970;SDS011;10644;48.834;10.088;2023-04-19T05:59:32;49.67;;;22.90;;
20970;SDS011;10644;48.834;10.088;2023-04-19T06:02:09;46.37;;;20.83;;
20970;SDS011;10644;48.834;10.088;2023-04-19T06:08:45;38.23;;;18.47;;
20970;SDS011;10644;48.834;10.088;2023-04-19T06:11:15;80.97;;;29.60;;
20970;SDS011;10644;48.834;10.088;2023-04-19T06:14:26;61.47;;;25.73;;
20970;SDS011;10644;48.834;10.088;2023-04-19T06:23:42;51.57;;;20.53;;
20970;SDS011;10644;48.834;10.088;2023-04-19T06:26:33;64.10;;;24.73;;
20970;SDS011;10644;48.834;10.088;2023-04-19T06:29:17;65.80;;;23.90;;
20970;SDS011;10644;48.834;10.088;2023-04-19T06:32:04;76.43;;;29.20;;
20970;SDS011;10644;48.834;10.088;2023-04-19T06:34:33;26.83;;;15.30;;
20970;SDS011;10644;48.834;10.088;2023-04-19T06:40:56;89.47;;;27.57;;
20970;SDS011;10644;48.834;10.088;2023-04-19T06:43:27;41.53;;;19.30;;
20970;SDS011;10644;48.834;10.088;2023-04-19T06:45:59;154.40;;;47.57;;
20970;SDS011;10644;48.834;10.088;2023-04-19T06:48:28;27.77;;;16.50;;
20970;SDS011;10644;48.834;10.088;2023-04-19T06:50:58;65.77;;;25.03;;
20970;SDS011;10644;48.834;10.088;2023-04-19T06:59:40;47.03;;;20.77;;
20970;SDS011;10644;48.834;10.088;2023-04-19T07:05:37;85.23;;;35.20;;
20970;SDS011;10644;48.834;10.088;2023-04-19T07:08:26;40.87;;;18.57;;
20970;SDS011;10644;48.834;10.088;2023-04-19T07:10:55;66.03;;;22.93;;
20970;SDS011;10644;48.834;10.088;2023-04-19T07:13:23;32.67;;;17.13;;
20970;SDS011;10644;48.834;10.088;2023-04-19T07:15:49;61.47;;;22.77;;
20970;SDS011;10644;48.834;10.088;2023-04-19T07:18:33;28.63;;;15.47;;
20970;SDS011;10644;48.834;10.088;2023-04-19T07:21:25;47.50;;;19.40;;
20970;SDS011;10644;48.834;10.088;2023-04-19T07:24:15;66.17;;;25.07;;
20970;SDS011;10644;48.834;10.088;2023-04-19T07:30:51;41.30;;;17.20;;
20970;SDS011;10644;48.834;10.088;2023-04-19T07:33:38;83.10;;;34.77;;
20970;SDS011;10644;48.834;10.088;2023-04-19T08:01:15;75.63;;;27.23;;
20970;SDS011;10644;48.834;10.088;2023-04-19T08:03:43;26.03;;;15.40;;
20970;SDS011;10644;48.834;10.088;2023-04-19T08:06:51;47.83;;;19.77;;
20970;SDS011;10644;48.834;10.088;2023-04-19T08:09:45;30.93;;;16.40;;
20970;SDS011;10644;48.834;10.088;2023-04-19T08:13:08;135.47;;;71.60;;
20970;SDS011;10644;48.834;10.088;2023-04-19T09:18:28;24.57;;;13.63;;
20970;SDS011;10644;48.834;10.088;2023-04-19T09:32:14;35.50;;;15.37;;
20970;SDS011;10644;48.834;10.088;2023-04-19T09:42:06;26.53;;;14.67;;
20970;SDS011;10644;48.834;10.088;2023-04-19T09:44:58;49.20;;;18.23;;
20970;SDS011;10644;48.834;10.088;2023-04-19T09:54:41;42.03;;;18.20;;
20970;SDS011;10644;48.834;10.088;2023-04-19T09:57:26;37.87;;;16.63;;
20970;SDS011;10644;48.834;10.088;2023-04-19T10:22:59;82.03;;;31.73;;
20970;SDS011;10644;48.834;10.088;2023-04-19T10:32:41;75.03;;;29.60;;
20970;SDS011;10644;48.834;10.088;2023-04-19T11:09:37;40.57;;;21.47;;
20970;SDS011;10644;48.834;10.088;2023-04-19T11:12:18;44.73;;;21.90;;
20970;SDS011;10644;48.834;10.088;2023-04-19T11:14:46;49.83;;;22.77;;
20970;SDS011;10644;48.834;10.088;2023-04-19T11:17:22;51.10;;;23.57;;
20970;SDS011;10644;48.834;10.088;2023-04-19T11:27:52;40.07;;;21.87;;
20970;SDS011;10644;48.834;10.088;2023-04-19T11:30:18;43.50;;;21.83;;
20970;SDS011;10644;48.834;10.088;2023-04-19T11:35:19;37.37;;;20.73;;
20970;SDS011;10644;48.834;10.088;2023-04-19T11:37:48;38.63;;;20.33;;
20970;SDS011;10644;48.834;10.088;2023-04-19T11:40:18;34.80;;;19.70;;
20970;SDS011;10644;48.834;10.088;2023-04-19T11:42:44;35.23;;;20.60;;
20970;SDS011;10644;48.834;10.088;2023-04-19T11:45:23;37.63;;;20.50;;
20970;SDS011;10644;48.834;10.088;2023-04-19T11:47:55;40.30;;;19.60;;
20970;SDS011;10644;48.834;10.088;2023-04-19T11:50:56;35.97;;;20.20;;
20970;SDS011;10644;48.834;10.088;2023-04-19T11:53:23;42.30;;;21.77;;
20970;SDS011;10644;48.834;10.088;2023-04-19T11:56:15;45.53;;;20.87;;
20970;SDS011;10644;48.834;10.088;2023-04-19T11:58:41;42.47;;;22.27;;
20970;SDS011;10644;48.834;10.088;2023-04-19T12:01:15;39.80;;;21.10;;
20970;SDS011;10644;48.834;10.088;2023-04-19T12:06:21;120.90;;;34.60;;
20970;SDS011;10644;48.834;10.088;2023-04-19T12:08:56;66.47;;;28.23;;
20970;SDS011;10644;48.834;10.088;2023-04-19T12:11:22;43.50;;;22.93;;
20970;SDS011;10644;48.834;10.088;2023-04-19T12:14:07;48.30;;;21.93;;
20970;SDS011;10644;48.834;10.088;2023-04-19T12:16:33;44.90;;;24.47;;
20970;SDS011;10644;48.834;10.088;2023-04-19T12:18:58;44.60;;;23.27;;
20970;SDS011;10644;48.834;10.088;2023-04-19T12:21:37;40.07;;;23.50;;
20970;SDS011;10644;48.834;10.088;2023-04-19T12:24:03;40.47;;;23.00;;
20970;SDS011;10644;48.834;10.088;2023-04-19T12:26:29;40.53;;;21.37;;
20970;SDS011;10644;48.834;10.088;2023-04-19T12:28:55;38.43;;;20.20;;
20970;SDS011;10644;48.834;10.088;2023-04-19T12:31:24;38.20;;;21.43;;
20970;SDS011;10644;48.834;10.088;2023-04-19T12:33:50;35.43;;;21.00;;
20970;SDS011;10644;48.834;10.088;2023-04-19T12:36:26;33.73;;;18.50;;
20970;SDS011;10644;48.834;10.088;2023-04-19T12:38:52;35.93;;;21.03;;
20970;SDS011;10644;48.834;10.088;2023-04-19T12:41:27;35.90;;;19.67;;
20970;SDS011;10644;48.834;10.088;2023-04-19T12:43:52;33.90;;;18.50;;
20970;SDS011;10644;48.834;10.088;2023-04-19T12:46:18;37.70;;;20.40;;
20970;SDS011;10644;48.834;10.088;2023-04-19T12:48:45;30.77;;;18.93;;
20970;SDS011;10644;48.834;10.088;2023-04-19T12:51:11;30.67;;;15.90;;
20970;SDS011;10644;48.834;10.088;2023-04-19T12:53:36;30.87;;;14.93;;
20970;SDS011;10644;48.834;10.088;2023-04-19T12:56:04;33.13;;;14.60;;
20970;SDS011;10644;48.834;10.088;2023-04-19T12:58:39;24.80;;;14.97;;
20970;SDS011;10644;48.834;10.088;2023-04-19T13:01:05;26.50;;;15.00;;
20970;SDS011;10644;48.834;10.088;2023-04-19T13:03:30;26.07;;;14.73;;
20970;SDS011;10644;48.834;10.088;2023-04-19T13:05:57;33.00;;;17.73;;
20970;SDS011;10644;48.834;10.088;2023-04-19T13:08:22;30.00;;;15.40;;
20970;SDS011;10644;48.834;10.088;2023-04-19T13:10:47;25.40;;;15.50;;
20970;SDS011;10644;48.834;10.088;2023-04-19T13:13:15;29.87;;;16.27;;
20970;SDS011;10644;48.834;10.088;2023-04-19T13:15:41;25.53;;;14.50;;
20970;SDS011;10644;48.834;10.088;2023-04-19T13:18:11;26.00;;;13.60;;
20970;SDS011;10644;48.834;10.088;2023-04-19T13:20:42;20.73;;;11.17;;
20970;SDS011;10644;48.834;10.088;2023-04-19T13:23:14;27.63;;;14.30;;
20970;SDS011;10644;48.834;10.088;2023-04-19T13:25:52;31.53;;;16.23;;
20970;SDS011;10644;48.834;10.088;2023-04-19T13:28:27;28.83;;;15.90;;
20970;SDS011;10644;48.834;10.088;2023-04-19T13:31:15;28.93;;;14.90;;
20970;SDS011;10644;48.834;10.088;2023-04-19T13:33:50;37.00;;;17.53;;
20970;SDS011;10644;48.834;10.088;2023-04-19T13:36:38;35.17;;;17.97;;
20970;SDS011;10644;48.834;10.088;2023-04-19T13:39:08;48.13;;;19.10;;
20970;SDS011;10644;48.834;10.088;2023-04-19T13:41:49;26.90;;;15.00;;
20970;SDS011;10644;48.834;10.088;2023-04-19T13:44:24;32.23;;;16.20;;
20970;SDS011;10644;48.834;10.088;2023-04-19T13:46:50;29.80;;;15.63;;
20970;SDS011;10644;48.834;10.088;2023-04-19T13:49:18;28.47;;;15.67;;
20970;SDS011;10644;48.834;10.088;2023-04-19T13:51:55;28.33;;;17.07;;
20970;SDS011;10644;48.834;10.088;2023-04-19T13:54:21;32.33;;;18.40;;
20970;SDS011;10644;48.834;10.088;2023-04-19T13:56:48;29.60;;;17.97;;
20970;SDS011;10644;48.834;10.088;2023-04-19T13:59:14;25.90;;;15.67;;
20970;SDS011;10644;48.834;10.088;2023-04-19T14:01:39;33.60;;;16.57;;
20970;SDS011;10644;48.834;10.088;2023-04-19T14:04:19;31.47;;;16.70;;
20970;SDS011;10644;48.834;10.088;2023-04-19T14:06:47;26.83;;;15.60;;
20970;SDS011;10644;48.834;10.088;2023-04-19T14:09:13;25.63;;;15.80;;
20970;SDS011;10644;48.834;10.088;2023-04-19T14:11:41;29.83;;;16.50;;
20970;SDS011;10644;48.834;10.088;2023-04-19T14:14:12;33.10;;;17.43;;
20970;SDS011;10644;48.834;10.088;2023-04-19T14:16:57;29.33;;;15.10;;
20970;SDS011;10644;48.834;10.088;2023-04-19T14:19:25;23.63;;;14.60;;
20970;SDS011;10644;48.834;10.088;2023-04-19T14:21:51;25.33;;;15.73;;
20970;SDS011;10644;48.834;10.088;2023-04-19T14:24:18;27.80;;;15.63;;
20970;SDS011;10644;48.834;10.088;2023-04-19T14:26:44;28.97;;;17.47;;
20970;SDS011;10644;48.834;10.088;2023-04-19T14:29:10;30.23;;;16.20;;
20970;SDS011;10644;48.834;10.088;2023-04-19T14:31:38;27.53;;;15.07;;
20970;SDS011;10644;48.834;10.088;2023-04-19T14:34:03;26.70;;;13.00;;
20970;SDS011;10644;48.834;10.088;2023-04-19T14:36:28;25.70;;;13.90;;
20970;SDS011;10644;48.834;10.088;2023-04-19T14:38:54;27.13;;;15.47;;
20970;SDS011;10644;48.834;10.088;2023-04-19T14:41:24;24.17;;;15.30;;
20970;SDS011;10644;48.834;10.088;2023-04-19T14:43:49;30.00;;;14.53;;
20970;SDS011;10644;48.834;10.088;2023-04-19T14:46:15;30.13;;;16.70;;
20970;SDS011;10644;48.834;10.088;2023-04-19T14:48:41;29.10;;;15.13;;
20970;SDS011;10644;48.834;10.088;2023-04-19T14:51:06;21.03;;;13.57;;
20970;SDS011;10644;48.834;10.088;2023-04-19T14:53:32;25.90;;;15.40;;
20970;SDS011;10644;48.834;10.088;2023-04-19T14:55:57;25.43;;;15.20;;
20970;SDS011;10644;48.834;10.088;2023-04-19T14:58:22;25.40;;;14.67;;
20970;SDS011;10644;48.834;10.088;2023-04-19T15:00:50;28.43;;;15.43;;
20970;SDS011;10644;48.834;10.088;2023-04-19T15:03:16;24.33;;;14.90;;
20970;SDS011;10644;48.834;10.088;2023-04-19T15:05:41;26.27;;;14.70;;
20970;SDS011;10644;48.834;10.088;2023-04-19T15:08:07;23.57;;;14.63;;
20970;SDS011;10644;48.834;10.088;2023-04-19T15:10:33;26.43;;;15.73;;
20970;SDS011;10644;48.834;10.088;2023-04-19T15:12:59;23.57;;;16.07;;
20970;SDS011;10644;48.834;10.088;2023-04-19T15:15:24;36.57;;;28.20;;
20970;SDS011;10644;48.834;10.088;2023-04-19T15:17:49;27.17;;;18.73;;
20970;SDS011;10644;48.834;10.088;2023-04-19T15:20:15;17.67;;;13.43;;
20970;SDS011;10644;48.834;10.088;2023-04-19T15:22:41;21.83;;;14.17;;
20970;SDS011;10644;48.834;10.088;2023-04-19T15:25:06;28.87;;;15.33;;
20970;SDS011;10644;48.834;10.088;2023-04-19T15:27:34;24.90;;;16.77;;
20970;SDS011;10644;48.834;10.088;2023-04-19T15:30:02;22.47;;;14.50;;
20970;SDS011;10644;48.834;10.088;2023-04-19T15:32:29;19.20;;;12.40;;
20970;SDS011;10644;48.834;10.088;2023-04-19T15:34:58;28.47;;;13.67;;
20970;SDS011;10644;48.834;10.088;2023-04-19T15:37:23;21.63;;;14.30;;
20970;SDS011;10644;48.834;10.088;2023-04-19T15:39:49;19.60;;;13.07;;
20970;SDS011;10644;48.834;10.088;2023-04-19T15:42:17;19.07;;;13.47;;
20970;SDS011;10644;48.834;10.088;2023-04-19T15:44:42;22.60;;;13.10;;
20970;SDS011;10644;48.834;10.088;2023-04-19T15:47:07;22.63;;;12.73;;
20970;SDS011;10644;48.834;10.088;2023-04-19T15:49:33;16.20;;;10.67;;
20970;SDS011;10644;48.834;10.088;2023-04-19T15:51:58;5.70;;;4.30;;
20970;SDS011;10644;48.834;10.088;2023-04-19T15:54:23;5.73;;;4.37;;
20970;SDS011;10644;48.834;10.088;2023-04-19T15:56:51;7.03;;;3.70;;
20970;SDS011;10644;48.834;10.088;2023-04-19T15:59:16;6.30;;;3.60;;
20970;SDS011;10644;48.834;10.088;2023-04-19T16:01:42;7.67;;;3.47;;
20970;SDS011;10644;48.834;10.088;2023-04-19T16:04:07;6.03;;;3.90;;
20970;SDS011;10644;48.834;10.088;2023-04-19T16:06:35;11.00;;;5.23;;
20970;SDS011;10644;48.834;10.088;2023-04-19T16:09:00;6.43;;;4.23;;
20970;SDS011;10644;48.834;10.088;2023-04-19T16:11:26;5.50;;;3.50;;
20970;SDS011;10644;48.834;10.088;2023-04-19T16:13:51;4.90;;;3.27;;
20970;SDS011;10644;48.834;10.088;2023-04-19T16:16:16;6.77;;;3.90;;
20970;SDS011;10644;48.834;10.088;2023-04-19T16:18:42;7.40;;;3.70;;
20970;SDS011;10644;48.834;10.088;2023-04-19T16:21:07;10.93;;;5.87;;
20970;SDS011;10644;48.834;10.088;2023-04-19T16:23:34;7.70;;;3.53;;
20970;SDS011;10644;48.834;10.088;2023-04-19T16:25:59;5.50;;;3.80;;
20970;SDS011;10644;48.834;10.088;2023-04-19T16:28:25;4.13;;;3.10;;
20970;SDS011;10644;48.834;10.088;2023-04-19T16:30:50;4.50;;;2.93;;
20970;SDS011;10644;48.834;10.088;2023-04-19T16:33:16;7.10;;;3.50;;
20970;SDS011;10644;48.834;10.088;2023-04-19T16:35:41;3.80;;;2.77;;
20970;SDS011;10644;48.834;10.088;2023-04-19T16:38:06;5.80;;;3.50;;
20970;SDS011;10644;48.834;10.088;2023-04-19T16:40:34;3.53;;;2.63;;
20970;SDS011;10644;48.834;10.088;2023-04-19T16:43:00;6.80;;;2.93;;
20970;SDS011;10644;48.834;10.088;2023-04-19T16:45:25;8.33;;;3.13;;
20970;SDS011;10644;48.834;10.088;2023-04-19T16:47:51;4.53;;;3.10;;
20970;SDS011;10644;48.834;10.088;2023-04-19T16:50:17;4.10;;;3.20;;
20970;SDS011;10644;48.834;10.088;2023-04-19T16:52:44;7.10;;;3.50;;
20970;SDS011;10644;48.834;10.088;2023-04-19T16:55:10;8.67;;;3.87;;
20970;SDS011;10644;48.834;10.088;2023-04-19T16:57:35;8.27;;;4.63;;
20970;SDS011;10644;48.834;10.088;2023-04-19T17:00:00;7.57;;;4.20;;
20970;SDS011;10644;48.834;10.088;2023-04-19T17:02:28;7.40;;;4.07;;
20970;SDS011;10644;48.834;10.088;2023-04-19T17:04:53;9.67;;;5.07;;
20970;SDS011;10644;48.834;10.088;2023-04-19T17:07:19;9.77;;;5.57;;
20970;SDS011;10644;48.834;10.088;2023-04-19T17:09:45;11.33;;;4.90;;
20970;SDS011;10644;48.834;10.088;2023-04-19T17:12:10;5.93;;;4.50;;
20970;SDS011;10644;48.834;10.088;2023-04-19T17:14:36;6.57;;;4.53;;
20970;SDS011;10644;48.834;10.088;2023-04-19T17:17:03;6.70;;;4.17;;
20970;SDS011;10644;48.834;10.088;2023-04-19T17:19:28;5.30;;;4.07;;
20970;SDS011;10644;48.834;10.088;2023-04-19T17:21:54;7.13;;;4.13;;
20970;SDS011;10644;48.834;10.088;2023-04-19T17:24:20;4.83;;;4.00;;
20970;SDS011;10644;48.834;10.088;2023-04-19T17:26:48;8.63;;;4.27;;
20970;SDS011;10644;48.834;10.088;2023-04-19T17:29:14;11.20;;;5.03;;
20970;SDS011;10644;48.834;10.088;2023-04-19T17:31:39;7.30;;;5.30;;
20970;SDS011;10644;48.834;10.088;2023-04-19T17:34:05;5.93;;;4.73;;
20970;SDS011;10644;48.834;10.088;2023-04-19T17:36:30;12.40;;;5.90;;
20970;SDS011;10644;48.834;10.088;2023-04-19T17:38:56;10.77;;;6.00;;
20970;SDS011;10644;48.834;10.088;2023-04-19T17:41:21;11.50;;;5.13;;
20970;SDS011;10644;48.834;10.088;2023-04-19T17:43:47;11.13;;;6.30;;
20970;SDS011;10644;48.834;10.088;2023-04-19T17:46:12;15.97;;;7.10;;
20970;SDS011;10644;48.834;10.088;2023-04-19T17:48:38;9.43;;;5.63;;
20970;SDS011;10644;48.834;10.088;2023-04-19T17:51:04;9.63;;;6.37;;
20970;SDS011;10644;48.834;10.088;2023-04-19T17:53:30;13.63;;;6.70;;
20970;SDS011;10644;48.834;10.088;2023-04-19T17:55:55;12.40;;;6.87;;
20970;SDS011;10644;48.834;10.088;2023-04-19T17:58:21;10.43;;;5.93;;
20970;SDS011;10644;48.834;10.088;2023-04-19T18:00:46;11.13;;;4.87;;
20970;SDS011;10644;48.834;10.088;2023-04-19T18:03:12;8.70;;;4.77;;
20970;SDS011;10644;48.834;10.088;2023-04-19T18:05:39;6.83;;;4.30;;
20970;SDS011;10644;48.834;10.088;2023-04-19T18:08:04;9.60;;;6.20;;
20970;SDS011;10644;48.834;10.088;2023-04-19T18:10:30;9.20;;;6.07;;
20970;SDS011;10644;48.834;10.088;2023-04-19T18:12:55;15.93;;;6.13;;
20970;SDS011;10644;48.834;10.088;2023-04-19T18:15:23;9.50;;;7.10;;
20970;SDS011;10644;48.834;10.088;2023-04-19T18:17:49;8.40;;;6.40;;
20970;SDS011;10644;48.834;10.088;2023-04-19T18:20:18;5.17;;;3.87;;
20970;SDS011;10644;48.834;10.088;2023-04-19T18:22:46;11.37;;;6.40;;
20970;SDS011;10644;48.834;10.088;2023-04-19T18:25:12;16.00;;;7.17;;
20970;SDS011;10644;48.834;10.088;2023-04-19T18:27:38;14.10;;;6.33;;
20970;SDS011;10644;48.834;10.088;2023-04-19T18:30:04;7.83;;;4.40;;
20970;SDS011;10644;48.834;10.088;2023-04-19T18:32:30;11.73;;;6.47;;
20970;SDS011;10644;48.834;10.088;2023-04-19T18:34:57;8.63;;;5.70;;
20970;SDS011;10644;48.834;10.088;2023-04-19T18:37:23;18.07;;;8.63;;
20970;SDS011;10644;48.834;10.088;2023-04-19T18:39:48;9.37;;;5.13;;
20970;SDS011;10644;48.834;10.088;2023-04-19T18:42:14;10.70;;;5.57;;
20970;SDS011;10644;48.834;10.088;2023-04-19T18:44:41;13.68;;;7.35;;
20970;SDS011;10644;48.834;10.088;2023-04-19T18:47:07;12.93;;;7.73;;
20970;SDS011;10644;48.834;10.088;2023-04-19T18:49:32;9.83;;;5.97;;
20970;SDS011;10644;48.834;10.088;2023-04-19T18:51:57;6.47;;;4.10;;
20970;SDS011;10644;48.834;10.088;2023-04-19T18:54:23;10.13;;;5.40;;
20970;SDS011;10644;48.834;10.088;2023-04-19T18:56:48;7.07;;;6.00;;
20970;SDS011;10644;48.834;10.088;2023-04-19T18:59:15;8.23;;;6.93;;
20970;SDS011;10644;48.834;10.088;2023-04-19T19:01:40;10.70;;;6.27;;
20970;SDS011;10644;48.834;10.088;2023-04-19T19:04:06;8.63;;;5.47;;
20970;SDS011;10644;48.834;10.088;2023-04-19T19:06:31;9.50;;;6.20;;
20970;SDS011;10644;48.834;10.088;2023-04-19T19:08:59;11.27;;;7.60;;
20970;SDS011;10644;48.834;10.088;2023-04-19T19:11:25;8.37;;;5.27;;
20970;SDS011;10644;48.834;10.088;2023-04-19T19:13:50;9.63;;;6.03;;
20970;SDS011;10644;48.834;10.088;2023-04-19T19:16:15;12.50;;;5.57;;
20970;SDS011;10644;48.834;10.088;2023-04-19T19:18:41;8.93;;;6.07;;
20970;SDS011;10644;48.834;10.088;2023-04-19T19:21:08;9.57;;;5.73;;
20970;SDS011;10644;48.834;10.088;2023-04-19T19:23:33;12.70;;;6.40;;
20970;SDS011;10644;48.834;10.088;2023-04-19T19:25:59;32.13;;;22.73;;
20970;SDS011;10644;48.834;10.088;2023-04-19T19:28:25;13.33;;;9.70;;
20970;SDS011;10644;48.834;10.088;2023-04-19T19:30:51;17.90;;;11.77;;
20970;SDS011;10644;48.834;10.088;2023-04-19T19:33:16;13.20;;;8.53;;
20970;SDS011;10644;48.834;10.088;2023-04-19T19:35:45;9.63;;;6.10;;
20970;SDS011;10644;48.834;10.088;2023-04-19T19:38:10;15.43;;;6.70;;
20970;SDS011;10644;48.834;10.088;2023-04-19T19:40:36;9.40;;;6.53;;
20970;SDS011;10644;48.834;10.088;2023-04-19T19:43:01;9.20;;;5.80;;
20970;SDS011;10644;48.834;10.088;2023-04-19T19:45:28;6.00;;;4.60;;
20970;SDS011;10644;48.834;10.088;2023-04-19T19:47:54;13.50;;;7.10;;
20970;SDS011;10644;48.834;10.088;2023-04-19T19:50:23;6.32;;;4.65;;
20970;SDS011;10644;48.834;10.088;2023-04-19T19:52:49;8.63;;;6.45;;
20970;SDS011;10644;48.834;10.088;2023-04-19T19:55:19;10.40;;;4.80;;
20970;SDS011;10644;48.834;10.088;2023-04-19T19:57:45;5.45;;;4.28;;
20970;SDS011;10644;48.834;10.088;2023-04-19T20:00:10;4.50;;;3.47;;
20970;SDS011;10644;48.834;10.088;2023-04-19T20:02:37;5.20;;;3.93;;
20970;SDS011;10644;48.834;10.088;2023-04-19T20:05:05;12.68;;;3.55;;
20970;SDS011;10644;48.834;10.088;2023-04-19T20:07:38;4.20;;;3.50;;
20970;SDS011;10644;48.834;10.088;2023-04-19T20:10:08;4.95;;;3.72;;
20970;SDS011;10644;48.834;10.088;2023-04-19T20:12:36;5.40;;;3.70;;
20970;SDS011;10644;48.834;10.088;2023-04-19T20:15:02;4.00;;;3.40;;
20970;SDS011;10644;48.834;10.088;2023-04-19T20:17:28;10.93;;;5.03;;
20970;SDS011;10644;48.834;10.088;2023-04-19T20:19:53;8.83;;;4.50;;
20970;SDS011;10644;48.834;10.088;2023-04-19T20:22:20;6.28;;;4.45;;
20970;SDS011;10644;48.834;10.088;2023-04-19T20:24:46;13.27;;;5.03;;
20970;SDS011;10644;48.834;10.088;2023-04-19T20:27:11;17.30;;;9.37;;
20970;SDS011;10644;48.834;10.088;2023-04-19T20:29:36;17.47;;;9.47;;
20970;SDS011;10644;48.834;10.088;2023-04-19T20:32:02;10.83;;;5.80;;
20970;SDS011;10644;48.834;10.088;2023-04-19T20:34:32;11.43;;;5.40;;
20970;SDS011;10644;48.834;10.088;2023-04-19T20:36:57;7.70;;;5.20;;
20970;SDS011;10644;48.834;10.088;2023-04-19T20:39:23;10.53;;;5.67;;
20970;SDS011;10644;48.834;10.088;2023-04-19T20:41:49;11.07;;;6.97;;
20970;SDS011;10644;48.834;10.088;2023-04-19T20:44:15;8.30;;;5.28;;
20970;SDS011;10644;48.834;10.088;2023-04-19T20:46:41;8.73;;;5.75;;
20970;SDS011;10644;48.834;10.088;2023-04-19T20:49:07;10.70;;;6.10;;
20970;SDS011;10644;48.834;10.088;2023-04-19T20:51:32;11.70;;;5.53;;
20970;SDS011;10644;48.834;10.088;2023-04-19T20:54:00;8.20;;;5.50;;
20970;SDS011;10644;48.834;10.088;2023-04-19T20:56:25;9.97;;;5.80;;
20970;SDS011;10644;48.834;10.088;2023-04-19T20:58:51;10.37;;;5.13;;
20970;SDS011;10644;48.834;10.088;2023-04-19T21:01:18;9.82;;;5.68;;
20970;SDS011;10644;48.834;10.088;2023-04-19T21:03:46;12.00;;;5.50;;
20970;SDS011;10644;48.834;10.088;2023-04-19T21:06:11;9.43;;;5.77;;
20970;SDS011;10644;48.834;10.088;2023-04-19T21:08:37;13.23;;;6.33;;
20970;SDS011;10644;48.834;10.088;2023-04-19T21:11:02;11.20;;;6.83;;
20970;SDS011;10644;48.834;10.088;2023-04-19T21:13:29;8.30;;;6.17;;
20970;SDS011;10644;48.834;10.088;2023-04-19T21:15:55;12.00;;;6.95;;
20970;SDS011;10644;48.834;10.088;2023-04-19T21:18:23;11.38;;;6.72;;
20970;SDS011;10644;48.834;10.088;2023-04-19T21:20:49;19.08;;;8.50;;
20970;SDS011;10644;48.834;10.088;2023-04-19T21:23:15;12.03;;;6.00;;
20970;SDS011;10644;48.834;10.088;2023-04-19T21:25:40;11.93;;;7.13;;
20970;SDS011;10644;48.834;10.088;2023-04-19T21:28:06;11.17;;;6.37;;
20970;SDS011;10644;48.834;10.088;2023-04-19T21:30:31;10.70;;;6.60;;
20970;SDS011;10644;48.834;10.088;2023-04-19T21:32:56;11.37;;;7.10;;
20970;SDS011;10644;48.834;10.088;2023-04-19T21:35:27;12.27;;;7.22;;
20970;SDS011;10644;48.834;10.088;2023-04-19T21:37:52;11.35;;;7.05;;
20970;SDS011;10644;48.834;10.088;2023-04-19T21:40:17;9.70;;;6.10;;
20970;SDS011;10644;48.834;10.088;2023-04-19T21:42:43;12.00;;;6.70;;
20970;SDS011;10644;48.834;10.088;2023-04-19T21:45:08;8.70;;;6.50;;
20970;SDS011;10644;48.834;10.088;2023-04-19T21:47:36;8.20;;;6.35;;
20970;SDS011;10644;48.834;10.088;2023-04-19T21:50:02;6.87;;;5.67;;
20970;SDS011;10644;48.834;10.088;2023-04-19T21:52:27;11.70;;;7.27;;
20970;SDS011;10644;48.834;10.088;2023-04-19T21:54:53;9.90;;;5.53;;
20970;SDS011;10644;48.834;10.088;2023-04-19T21:57:18;12.10;;;6.20;;
20970;SDS011;10644;48.834;10.088;2023-04-19T21:59:48;11.05;;;6.45;;
20970;SDS011;10644;48.834;10.088;2023-04-19T22:02:16;8.75;;;5.70;;
20970;SDS011;10644;48.834;10.088;2023-04-19T22:04:41;7.77;;;5.43;;
20970;SDS011;10644;48.834;10.088;2023-04-19T22:07:09;14.65;;;5.15;;
20970;SDS011;10644;48.834;10.088;2023-04-19T22:09:36;9.50;;;5.60;;
20970;SDS011;10644;48.834;10.088;2023-04-19T22:12:04;8.70;;;5.57;;
20970;SDS011;10644;48.834;10.088;2023-04-19T22:14:30;9.20;;;6.03;;
20970;SDS011;10644;48.834;10.088;2023-04-19T22:16:58;6.70;;;5.60;;